Time;durP1;ratioP1;P1;durP2;ratioP2;P2;SDS_P1;SDS_P2;PMS_P1;PMS_P2;Temp;Humidity;BMP_temperature;BMP_pressure;BME280_temperature;BME280_humidity;BME280_pressure;Samples;Min_cycle;Max_cycle;Signal;HPM_P1;HPM_P2
2023/01/22 00:00:59;;;;;;;;;;;;;;;2.16;100.00;101048.44;5094116;28;19934;-63
2023/01/22 00:03:24;;;;;;;;;;;;;;;2.16;100.00;101051.94;5093314;28;20010;-63
2023/01/22 00:05:51;;;;;;;;;;;;;;;2.19;100.00;101041.50;5093917;28;19996;-63
2023/01/22 00:08:17;;;;;;;;;;;;;;;2.21;100.00;101037.16;5106463;28;20019;-63
2023/01/22 00:10:47;;;;;;;;;;;;;;;2.24;100.00;101038.97;5105581;28;19939;-63
2023/01/22 00:13:12;;;;;;;;;;;;;;;2.21;100.00;101039.78;5094814;28;20348;-63
2023/01/22 00:15:37;;;;;;;;;;;;;;;2.22;100.00;101038.97;5093563;28;19975;-63
2023/01/22 00:18:03;;;;;;;;;;;;;;;2.22;100.00;101038.97;5111318;28;20292;-64
2023/01/22 00:20:28;;;;;;;;;;;;;;;2.20;100.00;101035.41;5095631;28;19998;-64
2023/01/22 00:22:53;;;;;;;;;;;;;;;2.18;100.00;101037.13;5105023;28;19934;-64
2023/01/22 00:25:18;;;;;;;;;;;;;;;2.19;100.00;101033.63;5114166;28;20306;-64
2023/01/22 00:27:44;;;;;;;;;;;;;;;2.18;100.00;101038.84;5109684;28;19936;-63
2023/01/22 00:30:09;;;;;;;;;;;;;;;2.17;100.00;101035.38;5109835;28;19938;-64
2023/01/22 00:32:35;;;;;;;;;;;;;;;2.19;100.00;101033.63;5113978;28;19949;-63
2023/01/22 00:35:00;;;;;;;;;;;;;;;2.19;100.00;101027.53;5108436;28;19945;-63
2023/01/22 00:37:25;;;;;;;;;;;;;;;2.19;100.00;101023.13;5093984;28;19930;-63
2023/01/22 00:39:50;;;;;;;;;;;;;;;2.22;100.00;101028.47;5093370;28;19936;-63
2023/01/22 00:42:16;;;;;;;;;;;;;;;2.19;100.00;101015.25;5107183;28;19939;-63
2023/01/22 00:44:41;;;;;;;;;;;;;;;2.21;100.00;101020.53;5108970;28;19936;-63
2023/01/22 00:47:06;;;;;;;;;;;;;;;2.17;100.00;101024.88;5100782;28;20006;-63
2023/01/22 00:49:31;;;;;;;;;;;;;;;2.22;100.00;101020.59;5093137;28;19967;-63
2023/01/22 00:51:57;;;;;;;;;;;;;;;2.26;100.00;101018.88;5111628;28;20026;-64
2023/01/22 00:54:22;;;;;;;;;;;;;;;2.24;100.00;101021.47;5112938;28;19931;-64
2023/01/22 00:56:47;;;;;;;;;;;;;;;2.24;100.00;101021.47;5097320;28;19935;-63
2023/01/22 00:59:12;;;;;;;;;;;;;;;2.22;100.00;101014.44;5113440;28;19956;-64
2023/01/22 01:01:38;;;;;;;;;;;;;;;2.18;100.00;101010.88;5100372;28;19933;-64
2023/01/22 01:04:03;;;;;;;;;;;;;;;2.15;100.00;101010.84;5099567;28;19942;-64
2023/01/22 01:06:28;;;;;;;;;;;;;;;2.16;100.00;101009.06;5093052;28;20449;-64
2023/01/22 01:08:54;;;;;;;;;;;;;;;2.17;100.00;101008.22;5095850;28;20344;-64
2023/01/22 01:11:24;;;;;;;;;;;;;;;2.18;100.00;101004.75;5099101;28;19934;-64
2023/01/22 01:13:50;;;;;;;;;;;;;;;2.21;100.00;101016.19;5092780;28;19957;-64
2023/01/22 01:16:22;;;;;;;;;;;;;;;2.21;100.00;101005.69;5092643;28;19972;-64
2023/01/22 01:18:48;;;;;;;;;;;;;;;2.23;100.00;101009.22;5102035;28;19936;-65
2023/01/22 01:21:13;;;;;;;;;;;;;;;2.25;100.00;101004.00;5098880;28;19928;-65
2023/01/22 01:23:39;;;;;;;;;;;;;;;2.25;100.00;101002.25;5093256;28;19939;-64
2023/01/22 01:26:09;;;;;;;;;;;;;;;2.27;100.00;101011.00;5112924;28;19960;-64
2023/01/22 01:28:37;;;;;;;;;;;;;;;2.28;100.00;101004.94;5112922;28;20273;-64
2023/01/22 01:31:03;;;;;;;;;;;;;;;2.27;100.00;101004.91;5108624;28;19942;-64
2023/01/22 01:33:29;;;;;;;;;;;;;;;2.31;100.00;101009.31;5112894;28;19955;-65
2023/01/22 01:35:57;;;;;;;;;;;;;;;2.30;100.00;101000.59;5108645;28;20020;-64
2023/01/22 01:38:23;;;;;;;;;;;;;;;2.31;100.00;100998.81;5108574;28;19963;-65
2023/01/22 01:40:48;;;;;;;;;;;;;;;2.32;100.00;100995.38;5102824;28;20691;-64
2023/01/22 01:43:14;;;;;;;;;;;;;;;2.31;100.00;101002.34;5097430;28;19931;-64
2023/01/22 01:45:40;;;;;;;;;;;;;;;2.31;100.00;101001.44;5112659;28;20403;-64
2023/01/22 01:48:05;;;;;;;;;;;;;;;2.31;100.00;100997.09;5111943;28;19931;-63
2023/01/22 01:50:31;;;;;;;;;;;;;;;2.31;100.00;100996.19;5094389;28;20029;-64
2023/01/22 01:52:57;;;;;;;;;;;;;;;2.29;100.00;100992.69;5092218;28;19950;-64
2023/01/22 01:55:25;;;;;;;;;;;;;;;2.29;100.00;100996.19;5094666;28;20516;-63
2023/01/22 01:57:51;;;;;;;;;;;;;;;2.33;100.00;100992.75;5094002;28;19945;-63
2023/01/22 02:00:35;;;;;;;;;;;;;;;2.30;100.00;100991.81;5092118;28;19931;-58
2023/01/22 02:03:00;;;;;;;;;;;;;;;2.27;100.00;100992.66;5092454;28;19980;-58
2023/01/22 02:05:27;;;;;;;;;;;;;;;2.28;100.00;100990.91;5091544;28;19974;-58
2023/01/22 02:07:52;;;;;;;;;;;;;;;2.25;100.00;100991.75;5091889;28;19976;-58
2023/01/22 02:10:18;;;;;;;;;;;;;;;2.26;100.00;100993.50;5093917;28;20384;-58
2023/01/22 02:12:43;;;;;;;;;;;;;;;2.29;100.00;100996.19;5105549;28;19953;-57
2023/01/22 02:15:09;;;;;;;;;;;;;;;2.28;100.00;100999.69;5095714;28;19959;-58
2023/01/22 02:17:34;;;;;;;;;;;;;;;2.28;100.00;100981.31;5091731;28;19935;-58
2023/01/22 02:19:59;;;;;;;;;;;;;;;2.29;100.00;100988.31;5091131;28;19924;-60
2023/01/22 02:22:27;;;;;;;;;;;;;;;2.34;100.00;100989.25;5094016;28;19944;-58
2023/01/22 02:24:53;;;;;;;;;;;;;;;2.37;100.00;100991.06;5091463;28;19931;-58
2023/01/22 02:27:18;;;;;;;;;;;;;;;2.36;100.00;100990.19;5094034;28;19936;-58
2023/01/22 02:29:43;;;;;;;;;;;;;;;2.38;100.00;100985.84;5094017;28;19999;-58
2023/01/22 02:32:08;;;;;;;;;;;;;;;2.35;100.00;100977.94;5091598;28;20029;-59
2023/01/22 02:34:34;;;;;;;;;;;;;;;2.35;100.00;100983.19;5091632;28;20021;-58
2023/01/22 02:37:00;;;;;;;;;;;;;;;2.35;100.00;100982.28;5091612;28;20322;-58
2023/01/22 02:39:25;;;;;;;;;;;;;;;2.37;100.00;100986.69;5093816;28;19941;-58
2023/01/22 02:41:50;;;;;;;;;;;;;;;2.39;100.00;100979.72;5091406;28;19942;-58
2023/01/22 02:44:16;;;;;;;;;;;;;;;2.38;100.00;100982.31;5091234;28;19931;-58
2023/01/22 02:46:41;;;;;;;;;;;;;;;2.36;100.00;100984.94;5099770;28;20400;-58
2023/01/22 02:49:06;;;;;;;;;;;;;;;2.38;100.00;100988.47;5111531;28;20010;-58
2023/01/22 02:51:31;;;;;;;;;;;;;;;2.39;100.00;100989.34;5108639;28;20365;-58
2023/01/22 02:53:57;;;;;;;;;;;;;;;2.40;100.00;100985.88;5110895;28;19954;-58
2023/01/22 02:56:22;;;;;;;;;;;;;;;2.38;100.00;100983.22;5111757;28;20446;-59
2023/01/22 02:58:48;;;;;;;;;;;;;;;2.38;100.00;100975.34;5099246;28;19927;-58
2023/01/22 03:01:21;;;;;;;;;;;;;;;2.36;100.00;100969.19;5095091;28;19932;-58
2023/01/22 03:03:47;;;;;;;;;;;;;;;2.35;100.00;100972.69;5096907;28;20342;-58
2023/01/22 03:06:14;;;;;;;;;;;;;;;2.37;100.00;100973.56;5115963;28;20307;-59
2023/01/22 03:08:40;;;;;;;;;;;;;;;2.37;100.00;100973.56;5104084;28;19980;-59
2023/01/22 03:11:05;;;;;;;;;;;;;;;2.38;100.00;100977.97;5095148;28;19985;-58
2023/01/22 03:21:42;;;;;;;;;;;;;;;2.45;100.00;100963.19;5115376;28;20013;-58
2023/01/22 03:24:08;;;;;;;;;;;;;;;2.46;100.00;100964.94;5115447;28;19966;-60
2023/01/22 03:26:34;;;;;;;;;;;;;;;2.46;100.00;100965.84;5097105;28;19943;-58
2023/01/22 03:28:59;;;;;;;;;;;;;;;2.46;100.00;100960.59;5095048;28;19926;-59
2023/01/22 03:31:24;;;;;;;;;;;;;;;2.45;100.00;100963.19;5096963;28;19946;-59
2023/01/22 03:33:50;;;;;;;;;;;;;;;2.45;100.00;100955.31;5094681;28;19965;-58
2023/01/22 03:36:15;;;;;;;;;;;;;;;2.46;100.00;100960.59;5094908;28;19968;-58
2023/01/22 03:38:41;;;;;;;;;;;;;;;2.21;100.00;100905.94;5094892;28;19929;-58
2023/01/22 03:41:09;;;;;;;;;;;;;;;2.48;100.00;100948.38;5105209;28;19933;-58
2023/01/22 03:43:34;;;;;;;;;;;;;;;2.45;100.00;100943.09;5115054;28;20043;-58
2023/01/22 03:46:04;;;;;;;;;;;;;;;2.42;100.00;100948.25;5110881;28;20442;-59
2023/01/22 03:48:29;;;;;;;;;;;;;;;2.44;100.00;100957.06;5114971;28;20021;-59
2023/01/22 03:50:54;;;;;;;;;;;;;;;2.43;100.00;100950.03;5114727;28;20458;-58
2023/01/22 03:53:20;;;;;;;;;;;;;;;2.48;100.00;100950.09;5098035;28;19967;-58
2023/01/22 03:55:45;;;;;;;;;;;;;;;2.47;100.00;100951.84;5092650;28;19947;-58
2023/01/22 03:58:10;;;;;;;;;;;;;;;2.46;100.00;100949.19;5099399;28;19939;-58
2023/01/22 04:00:35;;;;;;;;;;;;;;;2.44;100.00;100951.78;5114791;28;19994;-58
2023/01/22 04:03:01;;;;;;;;;;;;;;;2.44;100.00;100954.44;5100672;28;20002;-58
2023/01/22 04:05:26;;;;;;;;;;;;;;;2.43;100.00;100955.28;5109726;28;19950;-58
2023/01/22 04:07:51;;;;;;;;;;;;;;;2.45;100.00;100950.06;5098563;28;19932;-58
2023/01/22 04:10:17;;;;;;;;;;;;;;;2.45;100.00;100957.94;5095465;28;20300;-58
2023/01/22 04:12:42;;;;;;;;;;;;;;;2.46;100.00;100960.59;5096013;28;19958;-58
2023/01/22 04:15:07;;;;;;;;;;;;;;;2.44;100.00;100957.06;5093907;28;20414;-58
2023/01/22 04:17:33;;;;;;;;;;;;;;;2.47;100.00;100962.34;5094308;28;19983;-57
2023/01/22 04:19:58;;;;;;;;;;;;;;;2.45;100.00;100964.09;5113714;28;19942;-58
2023/01/22 04:22:23;;;;;;;;;;;;;;;2.46;100.00;100965.84;5093753;28;19935;-58
2023/01/22 04:24:48;;;;;;;;;;;;;;;2.48;100.00;100963.22;5104046;28;19947;-58
2023/01/22 04:27:14;;;;;;;;;;;;;;;2.53;100.00;100962.44;5113976;28;20281;-58
2023/01/22 04:29:39;;;;;;;;;;;;;;;2.50;100.00;100964.16;5109955;28;20057;-58
2023/01/22 04:32:04;;;;;;;;;;;;;;;2.50;100.00;100966.78;5113999;28;19952;-58
2023/01/22 04:34:29;;;;;;;;;;;;;;;2.51;100.00;100958.03;5113945;28;19927;-57
2023/01/22 04:36:55;;;;;;;;;;;;;;;2.51;100.00;100965.91;5113898;28;20509;-58
2023/01/22 04:39:20;;;;;;;;;;;;;;;2.50;100.00;100970.25;5107390;28;19942;-58
2023/01/22 04:41:45;;;;;;;;;;;;;;;2.50;100.00;100978.13;5093337;28;20420;-58
2023/01/22 04:44:10;;;;;;;;;;;;;;;2.51;100.00;100969.41;5092889;28;20020;-57
2023/01/22 04:46:36;;;;;;;;;;;;;;;2.58;100.00;100967.75;5095912;28;20390;-58
2023/01/22 04:49:01;;;;;;;;;;;;;;;2.56;100.00;100967.75;5092683;28;19966;-58
2023/01/22 04:51:26;;;;;;;;;;;;;;;2.68;100.00;100972.28;5100599;28;19943;-57
2023/01/22 04:53:51;;;;;;;;;;;;;;;2.61;100.00;100963.44;5113408;28;20377;-58
2023/01/22 04:56:17;;;;;;;;;;;;;;;2.55;100.00;100970.34;5113628;28;19986;-58
2023/01/22 04:58:42;;;;;;;;;;;;;;;2.54;100.00;100964.22;5093392;28;19940;-58
2023/01/22 05:01:08;;;;;;;;;;;;;;;2.54;100.00;100960.69;5103509;28;19935;-58
2023/01/22 05:03:33;;;;;;;;;;;;;;;2.53;100.00;100959.81;5106612;28;19937;-58
2023/01/22 05:06:02;;;;;;;;;;;;;;;2.56;100.00;100962.50;5093000;28;20007;-58
2023/01/22 05:08:28;;;;;;;;;;;;;;;2.69;100.00;100966.16;5093032;28;19935;-58
2023/01/22 05:10:53;;;;;;;;;;;;;;;2.70;100.00;100962.69;5095195;28;19991;-58
2023/01/22 05:13:18;;;;;;;;;;;;;;;2.66;100.00;100969.66;5092648;28;19984;-59
2023/01/22 05:15:43;;;;;;;;;;;;;;;2.59;100.00;100967.78;5093121;28;20266;-58
2023/01/22 05:18:08;;;;;;;;;;;;;;;2.55;100.00;100973.84;5092886;28;19927;-59
2023/01/22 05:20:34;;;;;;;;;;;;;;;2.55;100.00;100971.22;5094692;28;19933;-59
2023/01/22 05:22:59;;;;;;;;;;;;;;;2.55;100.00;100971.22;5091689;28;20420;-58
2023/01/22 05:25:24;;;;;;;;;;;;;;;2.53;100.00;100972.94;5092740;28;19983;-58
2023/01/22 05:27:49;;;;;;;;;;;;;;;2.63;100.00;100974.84;5094696;28;19933;-58
2023/01/22 05:30:15;;;;;;;;;;;;;;;2.60;100.00;100979.19;5092665;28;19977;-58
2023/01/22 05:32:40;;;;;;;;;;;;;;;2.62;100.00;100966.94;5092683;28;19948;-58
2023/01/22 05:35:05;;;;;;;;;;;;;;;2.55;100.00;100976.47;5105217;28;20025;-58
2023/01/22 05:37:31;;;;;;;;;;;;;;;2.55;100.00;100976.47;5112898;28;19943;-57
2023/01/22 05:39:56;;;;;;;;;;;;;;;2.53;100.00;100977.31;5110025;28;19932;-58
2023/01/22 05:42:21;;;;;;;;;;;;;;;2.54;100.00;100974.72;5092012;28;20020;-59
2023/01/22 05:44:47;;;;;;;;;;;;;;;2.65;100.00;100982.75;5109435;28;19932;-58
2023/01/22 05:47:12;;;;;;;;;;;;;;;2.68;100.00;100991.53;5112788;28;19936;-59
2023/01/22 05:49:38;;;;;;;;;;;;;;;2.72;100.00;100983.72;5112546;28;19966;-58
2023/01/22 05:52:03;;;;;;;;;;;;;;;2.74;100.00;100990.75;5108067;28;19956;-58
2023/01/22 05:54:28;;;;;;;;;;;;;;;2.78;100.00;100983.81;5095705;28;19957;-59
2023/01/22 05:56:54;;;;;;;;;;;;;;;2.67;100.00;100988.88;5091814;28;19942;-58
2023/01/22 05:59:19;;;;;;;;;;;;;;;2.63;100.00;100987.09;5072806;28;19984;-59
2023/01/22 06:01:44;;;;;;;;;;;;;;;2.61;100.00;100989.69;5092262;28;19935;-58
2023/01/22 06:04:09;;;;;;;;;;;;;;;2.61;100.00;100987.06;5089915;28;19936;-58
2023/01/22 06:06:35;;;;;;;;;;;;;;;2.63;100.00;100990.63;5089426;28;19946;-58
2023/01/22 06:09:00;;;;;;;;;;;;;;;2.64;100.00;100996.72;5089549;28;19928;-58
2023/01/22 06:11:26;;;;;;;;;;;;;;;2.62;100.00;100996.72;5100205;28;20512;-58
2023/01/22 06:13:51;;;;;;;;;;;;;;;2.60;100.00;100995.78;5110989;28;19957;-58
2023/01/22 06:16:16;;;;;;;;;;;;;;;2.64;100.00;101000.25;5110192;28;20018;-58
2023/01/22 06:18:42;;;;;;;;;;;;;;;2.63;100.00;101006.38;5095512;28;20398;-59
2023/01/22 06:21:07;;;;;;;;;;;;;;;2.62;100.00;101004.59;5091929;28;19958;-58
2023/01/22 06:23:33;;;;;;;;;;;;;;;2.63;100.00;101006.38;5091564;28;19932;-58
2023/01/22 06:26:00;;;;;;;;;;;;;;;2.67;100.00;101002.91;5093445;28;19936;-58
2023/01/22 06:28:26;;;;;;;;;;;;;;;2.66;100.00;101003.78;5091685;28;20285;-58
2023/01/22 06:30:52;;;;;;;;;;;;;;;2.64;100.00;101002.88;5091481;28;19926;-58
2023/01/22 06:33:17;;;;;;;;;;;;;;;2.67;100.00;101007.28;5093209;28;19976;-58
2023/01/22 06:35:42;;;;;;;;;;;;;;;2.70;100.00;101002.09;5091471;28;20371;-58
2023/01/22 06:38:08;;;;;;;;;;;;;;;2.73;100.00;101007.38;5093502;28;20035;-59
2023/01/22 06:40:33;;;;;;;;;;;;;;;2.71;100.00;101006.47;5090540;28;19933;-58
2023/01/22 06:43:02;;;;;;;;;;;;;;;2.73;100.00;101008.25;5089984;28;19932;-58
2023/01/22 06:45:28;;;;;;;;;;;;;;;2.74;100.00;101014.38;5105403;28;19936;-58
2023/01/22 06:47:53;;;;;;;;;;;;;;;2.75;100.00;101016.19;5109901;28;19938;-58
2023/01/22 06:50:18;;;;;;;;;;;;;;;2.77;100.00;101013.56;5095223;28;19970;-58
2023/01/22 06:52:43;;;;;;;;;;;;;;;2.54;100.00;100976.44;5069861;28;19979;-58
2023/01/22 06:55:09;;;;;;;;;;;;;;;2.77;100.00;101016.19;5079005;28;19985;-59
2023/01/22 06:57:34;;;;;;;;;;;;;;;2.80;100.00;101029.38;5108448;28;19944;-58
2023/01/22 06:59:59;;;;;;;;;;;;;;;2.76;100.00;101028.44;5110965;28;20046;-58
2023/01/22 07:02:25;;;;;;;;;;;;;;;2.77;100.00;101034.59;5070418;28;20059;-58
2023/01/22 07:04:50;;;;;;;;;;;;;;;2.76;100.00;101040.69;5086668;28;19952;-58
2023/01/22 07:07:15;;;;;;;;;;;;;;;2.77;100.00;101042.47;5090232;28;19933;-58
2023/01/22 07:09:40;;;;;;;;;;;;;;;2.77;100.00;101045.09;5070793;28;20013;-58
2023/01/22 07:12:06;;;;;;;;;;;;;;;2.76;100.00;101040.69;5089138;28;19979;-58
2023/01/22 07:14:31;;;;;;;;;;;;;;;2.75;100.00;101044.19;5091074;28;19944;-58
2023/01/22 07:16:56;;;;;;;;;;;;;;;2.72;100.00;101042.38;5090248;28;20302;-58
2023/01/22 07:19:22;;;;;;;;;;;;;;;2.72;100.00;101048.50;5090132;28;20247;-58
2023/01/22 07:21:47;;;;;;;;;;;;;;;2.72;100.00;101046.75;5109004;28;19930;-58
2023/01/22 07:24:13;;;;;;;;;;;;;;;2.73;100.00;101050.25;5111298;28;19930;-58
2023/01/22 07:26:38;;;;;;;;;;;;;;;2.73;100.00;101052.03;5106906;28;20264;-57
2023/01/22 07:29:04;;;;;;;;;;;;;;;2.72;100.00;101053.75;5111065;28;19932;-59
2023/01/22 07:31:29;;;;;;;;;;;;;;;2.75;100.00;101049.44;5107779;28;19939;-58
2023/01/22 07:33:54;;;;;;;;;;;;;;;2.73;100.00;101055.53;5109473;28;19958;-58
2023/01/22 07:36:19;;;;;;;;;;;;;;;2.78;100.00;101057.34;5110419;28;19934;-58
2023/01/22 07:38:45;;;;;;;;;;;;;;;2.76;100.00;101053.81;5098866;28;20409;-58
2023/01/22 07:41:10;;;;;;;;;;;;;;;2.77;100.00;101060.84;5102995;28;20029;-58
2023/01/22 07:43:35;;;;;;;;;;;;;;;2.76;100.00;101061.69;5111394;28;19955;-58
2023/01/22 07:46:01;;;;;;;;;;;;;;;2.75;100.00;101062.56;5097465;28;19934;-59
2023/01/22 07:48:26;;;;;;;;;;;;;;;2.82;100.00;101069.69;5094267;28;19945;-62
2023/01/22 07:50:52;;;;;;;;;;;;;;;2.85;100.00;101061.84;5111417;28;19973;-64
2023/01/22 07:53:17;;;;;;;;;;;;;;;2.85;100.00;101075.84;5114746;28;19946;-64
2023/01/22 07:55:42;;;;;;;;;;;;;;;2.91;100.00;101067.19;5114705;28;20515;-64
2023/01/22 07:58:09;;;;;;;;;;;;;;;2.90;100.00;101068.91;5112459;28;20360;-64
2023/01/22 08:00:34;;;;;;;;;;;;;;;2.89;100.00;101066.25;5093051;28;19968;-63
2023/01/22 08:03:00;;;;;;;;;;;;;;;3.01;100.00;101067.34;5110968;28;19929;-63
2023/01/22 08:05:26;;;;;;;;;;;;;;;2.97;100.00;101077.75;5094074;28;19947;-64
2023/01/22 08:07:51;;;;;;;;;;;;;;;2.96;100.00;101079.53;5104809;28;19940;-64
2023/01/22 08:10:17;;;;;;;;;;;;;;;2.98;100.00;101079.56;5109276;28;19944;-64
2023/01/22 08:12:42;;;;;;;;;;;;;;;2.94;100.00;101080.34;5096437;28;19949;-64
2023/01/22 08:15:08;;;;;;;;;;;;;;;2.97;100.00;101083.91;5114472;28;19937;-64
2023/01/22 08:17:34;;;;;;;;;;;;;;;3.01;100.00;101082.22;5096408;28;19939;-64
2023/01/22 08:19:59;;;;;;;;;;;;;;;3.05;100.00;101077.03;5096143;28;19941;-64
2023/01/22 08:22:24;;;;;;;;;;;;;;;3.11;100.00;101079.75;5091904;28;19934;-63
2023/01/22 08:24:49;;;;;;;;;;;;;;;3.17;100.00;101085.09;5091658;28;19932;-64
2023/01/22 08:27:15;;;;;;;;;;;;;;;3.21;100.00;101086.91;5093692;28;20051;-64
2023/01/22 08:29:40;;;;;;;;;;;;;;;3.28;100.00;101082.63;5093709;28;20309;-63
2023/01/22 08:32:05;;;;;;;;;;;;;;;3.37;100.00;101091.50;5105568;28;19935;-64
2023/01/22 08:34:31;;;;;;;;;;;;;;;3.51;100.00;101091.69;5113630;28;19941;-64
2023/01/22 08:36:56;;;;;;;;;;;;;;;3.62;100.00;101096.22;5113270;28;19925;-64
2023/01/22 08:39:21;;;;;;;;;;;;;;;3.69;100.00;101102.44;5109139;28;19940;-65
2023/01/22 08:41:46;;;;;;;;;;;;;;;3.77;100.00;101096.38;5094639;28;19945;-64
2023/01/22 08:44:12;;;;;;;;;;;;;;;3.88;100.00;101099.16;5097951;28;19980;-64
2023/01/22 08:46:39;;;;;;;;;;;;;;;3.83;100.00;101106.13;5113649;28;19937;-64
2023/01/22 08:49:05;;;;;;;;;;;;;;;3.81;100.00;101092.94;5101857;28;20417;-64
2023/01/22 08:51:31;;;;;;;;;;;;;;;3.79;100.00;101105.19;5109394;28;19974;-64
2023/01/22 08:53:56;;;;;;;;;;;;;;;3.72;100.00;101103.34;5111678;28;20395;-64
2023/01/22 08:56:21;;;;;;;;;;;;;;;3.68;100.00;101104.19;5095872;28;19977;-64
2023/01/22 08:58:47;;;;;;;;;;;;;;;3.64;100.00;101109.41;5093223;28;19935;-65
2023/01/22 09:01:14;;;;;;;;;;;;;;;3.67;100.00;101109.44;5097891;28;19992;-64
2023/01/22 09:03:39;;;;;;;;;;;;;;;3.67;100.00;101096.28;5105931;28;19929;-64
2023/01/22 09:06:04;;;;;;;;;;;;;;;3.67;100.00;101104.16;5092879;28;19941;-64
2023/01/22 09:08:30;;;;;;;;;;;;;;;3.66;100.00;101105.91;5092885;28;19942;-64
2023/01/22 09:10:55;;;;;;;;;;;;;;;3.65;100.00;101109.41;5095216;28;19945;-64
2023/01/22 09:13:20;;;;;;;;;;;;;;;3.68;100.00;101108.56;5092782;28;19957;-64
2023/01/22 09:15:46;;;;;;;;;;;;;;;3.69;100.00;101113.84;5095145;28;20310;-64
2023/01/22 09:18:11;;;;;;;;;;;;;;;3.73;100.00;101114.75;5092892;28;20074;-64
2023/01/22 09:20:36;;;;;;;;;;;;;;;3.80;100.00;101111.34;5092892;28;19928;-64
2023/01/22 09:23:01;;;;;;;;;;;;;;;3.82;100.00;101125.41;5092775;28;20018;-65
2023/01/22 09:25:28;;;;;;;;;;;;;;;3.86;100.00;101119.31;5095226;28;19961;-64
2023/01/22 09:27:59;;;;;;;;;;;;;;;3.84;100.00;101123.66;5092547;28;19942;-65
2023/01/22 09:30:25;;;;;;;;;;;;;;;3.77;100.00;101127.97;5094850;28;19958;-64
2023/01/22 09:32:51;;;;;;;;;;;;;;;3.71;100.00;101127.00;5092592;28;19952;-64
2023/01/22 09:35:16;;;;;;;;;;;;;;;3.67;100.00;101130.47;5092883;28;19957;-64
2023/01/22 09:37:42;;;;;;;;;;;;;;;3.70;100.00;101135.78;5094536;28;19978;-64
2023/01/22 09:40:17;;;;;;;;;;;;;;;3.66;100.00;101133.94;5092375;28;19937;-64
2023/01/22 09:42:43;;;;;;;;;;;;;;;3.60;100.00;101136.50;5094351;28;19978;-64
2023/01/22 09:45:10;;;;;;;;;;;;;;;3.54;100.00;101136.44;5092270;28;20391;-64
2023/01/22 09:47:40;;;;;;;;;;;;;;;3.60;100.00;101139.16;5092252;28;19936;-63
2023/01/22 09:50:11;;;;;;;;;;;;;;;3.71;100.00;101150.69;5071730;28;19971;-63
2023/01/22 09:52:37;;;;;;;;;;;;;;;3.77;100.00;101142.88;5071858;28;20041;-63
2023/01/22 09:55:15;;;;;;;;;;;;;;;3.81;100.00;101136.78;5098372;28;20362;-63
2023/01/22 09:57:44;;;;;;;;;;;;;;;3.83;100.00;101142.94;5111374;28;19957;-64
2023/01/22 10:00:14;;;;;;;;;;;;;;;3.71;100.00;101138.41;5103911;28;19929;-64
2023/01/22 10:02:51;;;;;;;;;;;;;;;3.79;100.00;101141.13;5110982;28;20021;-63
2023/01/22 10:05:35;;;;;;;;;;;;;;;3.85;100.00;101135.97;5071835;28;19997;-64
2023/01/22 10:08:07;;;;;;;;;;;;;;;3.96;100.00;101129.97;5090078;28;20022;-64
2023/01/22 10:10:33;;;;;;;;;;;;;;;3.95;100.00;101140.47;5091904;28;20296;-66
2023/01/22 10:13:18;;;;;;;;;;;;;;;3.97;100.00;101138.72;5103327;28;19967;-66
2023/01/22 10:15:44;;;;;;;;;;;;;;;3.99;100.00;101139.63;5093070;28;19945;-67
2023/01/22 10:18:28;;;;;;;;;;;;;;;3.92;100.00;101143.94;5091948;28;20296;-65
2023/01/22 10:20:54;;;;;;;;;;;;;;;3.97;100.00;101141.34;5103044;28;19930;-66
2023/01/22 10:23:20;;;;;;;;;;;;;;;4.04;100.00;101138.84;5099406;28;19937;-65
2023/01/22 10:25:46;;;;;;;;;;;;;;;4.08;100.00;101139.75;5094727;28;19931;-66
2023/01/22 10:28:12;;;;;;;;;;;;;;;4.13;100.00;101140.69;5092018;28;20102;-66
2023/01/22 10:30:57;;;;;;;;;;;;;;;4.14;100.00;101142.44;5092015;28;20434;-66
2023/01/22 10:33:23;;;;;;;;;;;;;;;4.15;100.00;101135.44;5093440;28;20017;-65
2023/01/22 10:35:51;;;;;;;;;;;;;;;4.18;100.00;101143.38;5094210;28;19930;-66
2023/01/22 10:38:22;;;;;;;;;;;;;;;4.25;100.00;101142.56;5100592;28;20407;-65
2023/01/22 10:40:51;;;;;;;;;;;;;;;4.36;100.00;101139.19;5102402;28;19931;-65
2023/01/22 10:43:16;;;;;;;;;;;;;;;4.39;100.00;101136.56;5095809;28;20417;-67
2023/01/22 10:46:03;;;;;;;;;;;;;;;4.49;100.00;101140.19;5094435;28;20050;-67
2023/01/22 10:48:29;;;;;;;;;;;;;;;4.59;100.00;101144.66;5091769;28;19941;-69
2023/01/22 10:51:06;;;;;;;;;;;;;;;4.59;100.00;101145.56;5104291;28;19964;-66
2023/01/22 10:53:33;;;;;;;;;;;;;;;4.55;100.00;101142.84;5111366;28;19959;-68
2023/01/22 10:56:00;;;;;;;;;;;;;;;4.56;100.00;101142.00;5095081;28;19928;-66
2023/01/22 10:58:28;;;;;;;;;;;;;;;4.42;100.00;101139.22;5112883;28;19938;-67
2023/01/22 11:00:55;;;;;;;;;;;;;;;4.31;100.00;101145.25;5105941;28;20452;-64
2023/01/22 11:03:29;;;;;;;;;;;;;;;4.32;100.00;101145.28;5091921;28;19997;-64
2023/01/22 11:05:56;;;;;;;;;;;;;;;4.17;100.00;101141.63;5094809;28;20001;-65
2023/01/22 11:08:24;;;;;;;;;;;;;;;4.11;100.00;101134.53;5097207;28;19936;-64
2023/01/22 11:10:49;;;;;;;;;;;;;;;4.22;100.00;101138.13;5101189;28;19961;-64
2023/01/22 11:13:24;;;;;;;;;;;;;;;4.26;100.00;101139.06;5109087;28;20489;-64
2023/01/22 11:16:08;;;;;;;;;;;;;;;4.19;100.00;101137.22;5114799;28;20036;-64
2023/01/22 11:18:42;;;;;;;;;;;;;;;4.23;100.00;101134.66;5119484;28;19943;-64
2023/01/22 11:21:15;;;;;;;;;;;;;;;4.28;100.00;101135.59;5117843;28;19929;-64
2023/01/22 11:23:56;;;;;;;;;;;;;;;4.28;100.00;101134.69;5104884;28;19973;-63
2023/01/22 11:26:48;;;;;;;;;;;;;;;4.19;100.00;101137.22;5105786;28;19937;-62
2023/01/22 11:29:24;;;;;;;;;;;;;;;4.34;100.00;101127.75;5107488;28;20351;-63
2023/01/22 11:31:56;;;;;;;;;;;;;;;4.36;100.00;101139.19;5104372;28;19931;-63
2023/01/22 11:34:38;;;;;;;;;;;;;;;4.34;100.00;101135.66;5103193;28;19939;-63
2023/01/22 11:37:09;;;;;;;;;;;;;;;4.31;100.00;101132.97;5106577;28;19979;-64
2023/01/22 11:39:40;;;;;;;;;;;;;;;4.30;100.00;101136.47;5103786;28;19941;-64
2023/01/22 11:42:22;;;;;;;;;;;;;;;4.26;100.00;101139.06;5084260;28;20014;-62
2023/01/22 11:45:00;;;;;;;;;;;;;;;4.21;100.00;101139.03;5102932;28;19982;-63
2023/01/22 11:47:48;;;;;;;;;;;;;;;4.27;100.00;101132.94;5103520;28;19952;-63
2023/01/22 11:50:24;;;;;;;;;;;;;;;4.24;100.00;101136.41;5097038;28;19958;-63
2023/01/22 11:53:08;;;;;;;;;;;;;;;4.14;100.00;101141.53;5101084;28;19972;-63
2023/01/22 11:55:33;;;;;;;;;;;;;;;4.32;100.00;101134.75;5103856;28;19938;-64
2023/01/22 11:58:02;;;;;;;;;;;;;;;4.29;100.00;101139.97;5105093;28;19936;-63
2023/01/22 12:00:36;;;;;;;;;;;;;;;4.33;100.00;101147.06;5107617;28;20377;-63
2023/01/22 12:03:16;;;;;;;;;;;;;;;4.36;100.00;101133.03;5102139;28;19935;-64
2023/01/22 12:05:56;;;;;;;;;;;;;;;4.25;100.00;101138.16;5101479;28;19942;-64
2023/01/22 12:08:48;;;;;;;;;;;;;;;4.22;100.00;101138.13;5101425;28;19933;-64
2023/01/22 12:11:32;;;;;;;;;;;;;;;4.28;100.00;101138.22;5063137;28;19939;-64
2023/01/22 12:13:57;;;;;;;;;;;;;;;4.38;100.00;101140.09;5118402;28;19956;-64
2023/01/22 12:16:28;;;;;;;;;;;;;;;4.36;100.00;101131.28;5120611;28;19973;-64
2023/01/22 12:19:05;;;;;;;;;;;;;;;4.38;100.00;101139.19;5115561;28;20317;-64
2023/01/22 12:21:39;;;;;;;;;;;;;;;4.43;100.00;101132.22;5098634;28;19936;-64
2023/01/22 12:24:11;;;;;;;;;;;;;;;4.43;100.00;101124.31;5096683;28;19934;-64
2023/01/22 12:26:47;;;;;;;;;;;;;;;4.45;100.00;101128.72;5101518;28;19966;-64
2023/01/22 12:29:15;;;;;;;;;;;;;;;4.43;100.00;101127.81;5117317;28;20089;-64
2023/01/22 12:31:40;;;;;;;;;;;;;;;4.36;100.00;101130.38;5113946;28;19937;-63
2023/01/22 12:34:12;;;;;;;;;;;;;;;4.34;100.00;101132.13;5095938;28;19998;-63
2023/01/22 12:36:38;;;;;;;;;;;;;;;4.33;100.00;101120.72;5096047;28;20006;-64
2023/01/22 12:39:15;;;;;;;;;;;;;;;4.39;100.00;101128.69;5110432;28;19929;-63
2023/01/22 12:41:59;;;;;;;;;;;;;;;4.55;100.00;101122.69;5100925;28;19940;-64
2023/01/22 12:44:47;;;;;;;;;;;;;;;4.53;100.00;101129.69;5092275;28;19932;-64